.
WxDataArchive / Data Records for 2011-09-14
2011-09-13 September 2011 2011-09-15

Data Records for Wednesday, 14 September 2011

Time	Temp	Chill	HIndex	Humid	Dewpt	 Wind 	HiWind	WindDir	Rain 	Barom 
-----	----	-----	------	-----	-----	------	------	-------	-----	----- 
00:00	58.6	58.6	58.6	77	51.4	0	1	270	0.00	29.945 
00:05	58.3	58.3	58.3	76	50.8	0	1	270	0.00	29.945 
00:10	58.1	58.1	58.1	75	50.2	0	1	270	0.00	29.945 
00:15	58.1	58.1	58.1	74	49.9	0	3	270	0.00	29.946 
00:20	58.0	58.0	58.0	74	49.8	0	3	292	0.00	29.946 
00:25	57.8	57.8	57.8	74	49.6	0	1	292	0.00	29.946 
00:30	57.6	57.6	57.6	74	49.4	0	2	292	0.00	29.951 
00:35	57.5	57.5	57.5	75	49.6	0	1	315	0.00	29.951 
00:40	57.2	57.2	57.2	75	49.3	0	1	315	0.00	29.951 
00:45	57.0	57.0	57.0	75	49.2	0	1	315	0.00	29.958 
00:50	56.9	56.9	56.9	75	49.1	0	1	315	0.00	29.958 
00:55	56.7	56.7	56.7	75	48.9	0	1	315	0.00	29.958 
01:00	56.6	56.6	56.6	76	49.1	0	0	---	0.00	29.962 
01:05	56.3	56.3	56.3	76	48.8	0	0	---	0.00	29.962 
01:10	56.2	56.2	56.2	76	48.7	0	0	---	0.00	29.962 
01:15	55.9	55.9	55.9	76	48.4	0	0	---	0.00	29.961 
01:20	55.6	55.6	55.6	77	48.5	0	0	---	0.00	29.961 
01:25	55.3	55.3	55.3	77	48.2	0	0	---	0.00	29.961 
01:30	55.0	55.0	55.0	77	47.9	0	0	---	0.00	29.961 
01:35	54.7	54.7	54.7	78	48.0	0	0	---	0.00	29.961 
01:40	54.4	54.4	54.4	79	48.0	0	0	---	0.00	29.961 
01:45	54.1	54.1	54.1	79	47.7	0	0	---	0.00	29.963 
01:50	53.8	53.8	53.8	80	47.8	0	0	---	0.00	29.963 
01:55	53.6	53.6	53.6	81	47.9	0	0	---	0.00	29.963 
02:00	53.3	53.3	53.3	81	47.6	0	0	---	0.00	29.963 
02:05	53.1	53.1	53.1	82	47.8	0	0	---	0.00	29.963 
02:10	52.8	52.8	52.8	82	47.5	0	0	---	0.00	29.963 
02:15	52.5	52.5	52.5	83	47.5	0	0	---	0.00	29.959 
02:20	52.2	52.2	52.2	83	47.2	0	0	---	0.00	29.959 
02:25	52.0	52.0	52.0	84	47.3	0	0	---	0.00	29.959 
02:30	51.7	51.7	51.7	85	47.3	0	0	---	0.00	29.961 
02:35	51.6	51.6	51.6	85	47.2	0	0	---	0.00	29.961 
02:40	51.4	51.4	51.4	86	47.4	0	0	---	0.00	29.961 
02:45	51.3	51.3	51.3	86	47.3	0	0	---	0.00	29.961 
02:50	51.1	51.1	51.1	87	47.4	0	0	---	0.00	29.961 
02:55	51.0	51.0	51.0	87	47.3	0	0	---	0.00	29.961 
03:00	50.8	50.8	50.8	87	47.1	0	0	---	0.00	29.953 
03:05	50.7	50.7	50.7	88	47.3	0	0	---	0.00	29.953 
03:10	50.5	50.5	50.5	88	47.1	0	0	---	0.00	29.953 
03:15	50.4	50.4	50.4	88	47.0	0	0	---	0.00	29.950 
03:20	50.4	50.4	50.4	88	47.0	0	0	---	0.00	29.950 
03:25	50.2	50.2	50.2	88	46.8	0	0	---	0.00	29.950 
03:30	50.1	50.1	50.1	88	46.7	0	0	---	0.00	29.950 
03:35	49.8	49.8	49.8	89	46.7	0	0	---	0.00	29.950 
03:40	49.6	49.6	49.6	89	46.5	0	0	---	0.00	29.950 
03:45	49.5	49.5	49.5	89	46.4	0	0	---	0.00	29.951 
03:50	49.5	49.5	49.5	89	46.4	0	0	---	0.00	29.951 
03:55	49.4	49.4	49.4	89	46.3	0	0	---	0.00	29.951 
04:00	49.4	49.4	49.4	90	46.6	0	0	---	0.00	29.957 
04:05	49.2	49.2	49.2	90	46.4	0	0	---	0.00	29.957 
04:10	49.2	49.2	49.2	90	46.4	0	0	---	0.00	29.957 
04:15	49.1	49.1	49.1	90	46.3	0	0	---	0.00	29.959 
04:20	48.9	48.9	48.9	90	46.1	0	0	---	0.00	29.959 
04:25	48.9	48.9	48.9	91	46.4	0	0	---	0.00	29.959 
04:30	48.8	48.8	48.8	91	46.3	0	0	---	0.00	29.966 
04:35	48.6	48.6	48.6	91	46.1	0	0	---	0.00	29.966 
04:40	48.6	48.6	48.6	91	46.1	0	0	---	0.00	29.966 
04:45	48.5	48.5	48.5	91	46.0	0	0	---	0.00	29.973 
04:50	48.5	48.5	48.5	91	46.0	0	0	---	0.00	29.973 
04:55	48.3	48.3	48.3	91	45.8	0	0	---	0.00	29.973 
05:00	48.3	48.3	48.3	91	45.8	0	0	---	0.00	29.968 
05:05	48.2	48.2	48.2	92	46.0	0	0	---	0.00	29.968 
05:10	48.2	48.2	48.2	92	46.0	0	0	---	0.00	29.968 
05:15	48.0	48.0	48.0	92	45.8	0	0	---	0.00	29.968 
05:20	47.9	47.9	47.9	92	45.7	0	0	---	0.00	29.968 
05:25	47.9	47.9	47.9	92	45.7	0	0	---	0.00	29.968 
05:30	47.9	47.9	47.9	92	45.7	0	0	---	0.00	29.974 
05:35	47.9	47.9	47.9	92	45.7	0	0	---	0.00	29.974 
05:40	47.9	47.9	47.9	92	45.7	0	0	---	0.00	29.974 
05:45	48.0	48.0	48.0	92	45.8	0	0	---	0.00	29.983 
05:50	48.0	48.0	48.0	92	45.8	0	0	---	0.00	29.983 
05:55	48.0	48.0	48.0	92	45.8	0	0	---	0.00	29.983 
06:00	48.0	48.0	48.0	92	45.8	0	0	---	0.00	29.976 
06:05	48.0	48.0	48.0	93	46.1	0	0	---	0.00	29.976 
06:10	48.0	48.0	48.0	93	46.1	0	0	---	0.00	29.976 
06:15	48.0	48.0	48.0	93	46.1	0	0	---	0.00	29.978 
06:20	48.2	48.2	48.2	93	46.3	0	0	---	0.00	29.978 
06:25	48.2	48.2	48.2	93	46.3	0	0	---	0.00	29.978 
06:30	48.3	48.3	48.3	93	46.4	0	0	---	0.00	29.988 
06:35	48.3	48.3	48.3	93	46.4	0	0	---	0.00	29.988 
06:40	48.3	48.3	48.3	93	46.4	0	0	---	0.00	29.988 
06:45	48.5	48.5	48.5	93	46.6	0	0	---	0.00	29.993 
06:50	48.5	48.5	48.5	93	46.6	0	0	---	0.00	29.993 
06:55	48.3	48.3	48.3	93	46.4	0	0	---	0.00	29.993 
07:00	48.0	48.0	48.0	93	46.1	0	0	---	0.00	30.001 
07:05	47.9	47.9	47.9	93	46.0	0	0	---	0.00	30.001 
07:10	47.9	47.9	47.9	93	46.0	0	0	---	0.00	30.001 
07:15	47.9	47.9	47.9	93	46.0	0	0	---	0.00	29.999 
07:20	47.7	47.7	47.7	93	45.8	0	0	---	0.00	29.999 
07:25	47.7	47.7	47.7	93	45.8	0	0	---	0.00	29.999 
07:30	47.7	47.7	47.7	93	45.8	0	0	---	0.00	30.005 
07:35	47.6	47.6	47.6	93	45.7	0	0	---	0.00	30.005 
07:40	47.6	47.6	47.6	93	45.7	0	0	---	0.00	30.005 
07:45	47.4	47.4	47.4	93	45.5	0	0	---	0.00	30.008 
07:50	47.6	47.6	47.6	93	45.7	0	0	---	0.00	30.008 
07:55	47.7	47.7	47.7	94	46.1	0	0	---	0.00	30.008 
08:00	48.0	48.0	48.0	94	46.4	0	0	---	0.00	30.016 
08:05	48.5	48.5	48.5	94	46.9	0	0	---	0.00	30.016 
08:10	48.9	48.9	48.9	94	47.2	0	0	---	0.00	30.016 
08:15	49.2	49.2	49.2	94	47.5	0	0	---	0.00	30.024 
08:20	49.6	49.6	49.6	94	47.9	0	0	---	0.00	30.024 
08:25	49.9	49.9	49.9	94	48.2	0	0	---	0.00	30.024 
08:30	50.4	50.4	50.4	94	48.7	0	1	315	0.00	30.029 
08:35	50.8	50.8	50.8	94	49.1	0	1	315	0.00	30.029 
08:40	51.3	51.3	51.3	93	49.3	0	1	315	0.00	30.029 
08:45	51.7	51.7	51.7	93	49.7	0	1	315	0.00	30.030 
08:50	52.0	52.0	52.0	92	49.7	0	1	315	0.00	30.030 
08:55	52.5	52.5	52.5	92	50.2	0	1	315	0.00	30.030 
09:00	53.2	53.2	53.2	91	50.6	0	1	315	0.00	30.028 
09:05	53.6	53.6	53.6	89	50.4	0	1	315	0.00	30.028 
09:10	53.9	53.9	53.9	88	50.4	0	3	315	0.00	30.028 
09:15	54.4	54.4	54.4	86	50.3	0	1	315	0.00	30.027 
09:20	55.0	55.0	55.0	85	50.6	0	1	315	0.00	30.027 
09:25	55.4	55.4	55.4	84	50.6	0	2	315	0.00	30.027 
09:30	55.9	55.9	55.9	83	50.8	0	1	315	0.00	30.024 
09:35	56.3	56.3	56.3	81	50.5	0	1	315	0.00	30.024 
09:40	56.9	56.9	56.9	80	50.8	0	1	315	0.00	30.024 
09:45	57.3	57.3	57.3	77	50.1	0	1	315	0.00	30.019 
09:50	58.0	58.0	58.0	76	50.5	0	1	315	0.00	30.019 
09:55	58.4	58.4	58.4	75	50.5	0	2	315	0.00	30.019 
10:00	59.3	59.3	59.3	75	51.4	0	2	315	0.00	30.003 
10:05	59.8	59.8	59.8	72	50.8	1	2	315	0.00	30.003 
10:10	60.4	60.4	60.4	70	50.6	0	1	315	0.00	30.003 
10:15	61.0	61.0	61.0	68	50.4	0	2	315	0.00	30.002 
10:20	61.6	61.6	61.6	64	49.3	1	2	315	0.00	30.002 
10:25	62.1	62.1	62.1	60	48.0	0	2	315	0.00	30.002 
10:30	62.7	62.7	62.7	59	48.2	0	1	315	0.00	29.998 
10:35	63.7	63.7	63.7	59	49.1	0	1	315	0.00	29.998 
10:40	64.3	64.3	64.3	55	47.8	1	2	315	0.00	29.998 
10:45	65.0	65.0	65.0	50	45.9	1	3	112	0.00	29.994 
10:50	65.5	65.5	65.5	49	45.8	0	2	112	0.00	29.994 
10:55	65.6	65.6	65.6	48	45.4	1	4	112	0.00	29.994 
11:00	66.0	66.0	66.0	50	46.8	0	1	112	0.00	30.001 
11:05	66.4	66.4	66.4	47	45.5	1	3	112	0.00	30.001 
11:10	67.1	67.1	67.1	47	46.2	1	2	112	0.00	30.001 
11:15	67.4	67.4	67.4	47	46.5	1	4	112	0.00	30.010 
11:20	67.6	67.6	67.6	47	46.6	0	3	112	0.00	30.010 
11:25	67.8	67.8	67.8	46	46.3	0	2	112	0.00	30.010 
11:30	67.9	67.9	67.9	44	45.2	0	2	112	0.00	30.015 
11:35	68.4	68.4	68.4	45	46.2	0	3	112	0.00	30.015 
11:40	68.3	68.3	68.3	42	44.3	1	4	112	0.00	30.015 
11:45	68.1	68.1	68.1	44	45.4	1	4	112	0.00	30.019 
11:50	68.3	68.3	68.3	45	46.1	0	3	112	0.00	30.019 
11:55	68.8	68.8	68.8	41	44.1	1	4	112	0.00	30.019 
12:00	68.9	68.9	68.9	43	45.5	1	4	248	0.00	30.020 
12:05	68.6	68.6	68.6	42	44.6	1	3	270	0.00	30.020 
12:10	68.9	68.9	68.9	44	46.1	1	3	112	0.00	30.020 
12:15	69.4	69.4	69.4	45	47.1	1	5	135	0.00	30.015 
12:20	69.6	69.6	69.6	43	46.1	1	3	68	0.00	30.015 
12:25	69.8	69.8	69.8	46	48.1	1	5	112	0.00	30.015 
12:30	70.1	70.1	70.1	43	46.6	0	2	112	0.00	30.006 
12:35	70.3	70.3	70.3	42	46.1	1	4	112	0.00	30.006 
12:40	69.9	69.9	69.9	42	45.8	2	5	270	0.00	30.006 
12:45	69.8	69.8	69.8	43	46.3	1	3	270	0.00	30.001 
12:50	69.4	69.4	69.4	44	46.5	0	2	315	0.00	30.001 
12:55	69.6	69.6	69.6	48	49.0	0	3	112	0.00	30.001 
13:00	70.1	70.1	70.1	45	47.8	0	2	112	0.00	30.000 
13:05	69.8	69.8	69.8	43	46.3	1	5	315	0.00	30.000 
13:10	69.1	69.1	69.1	43	45.7	1	4	270	0.00	30.000 
13:15	68.8	68.8	68.8	43	45.4	1	5	270	0.00	30.006 
13:20	69.1	69.1	69.1	44	46.3	1	4	270	0.00	30.006 
13:25	69.6	69.6	69.6	45	47.3	1	4	68	0.00	30.006 
13:30	69.9	69.9	69.9	45	47.6	1	3	292	0.00	30.008 
13:35	69.9	69.9	69.9	42	45.8	1	4	292	0.00	30.008 
13:40	69.4	69.4	69.4	43	45.9	1	2	292	0.00	30.008 
13:45	69.4	69.4	69.4	43	45.9	0	2	292	0.00	30.007 
13:50	70.1	70.1	70.1	46	48.3	0	2	292	0.00	30.007 
13:55	70.3	70.3	70.3	45	47.9	1	9	90	0.00	30.007 
14:00	70.1	70.1	70.1	45	47.8	1	3	292	0.00	30.001 
14:05	69.8	69.8	69.8	43	46.3	1	5	270	0.00	30.001 
14:10	69.8	69.8	69.8	44	46.9	1	5	315	0.00	30.001 
14:15	70.4	70.4	70.4	47	49.2	0	4	112	0.00	29.989 
14:20	70.9	70.9	70.9	42	46.6	1	6	112	0.00	29.989 
14:25	70.9	70.9	70.9	44	47.9	1	6	135	0.00	29.989 
14:30	70.8	70.8	70.8	41	45.9	1	3	202	0.00	29.984 
14:35	70.6	70.6	70.6	43	47.0	2	4	292	0.00	29.984 
14:40	70.1	70.1	70.1	46	48.3	1	4	292	0.00	29.984 
14:45	70.1	70.1	70.1	46	48.3	1	3	338	0.00	29.995 
14:50	69.9	69.9	69.9	45	47.6	1	6	112	0.00	29.995 
14:55	69.6	69.6	69.6	46	47.9	0	2	112	0.00	29.995 
15:00	68.9	68.9	68.9	46	47.3	0	3	315	0.00	30.006 
15:05	68.4	68.4	68.4	47	47.4	0	3	315	0.00	30.006 
15:10	67.9	67.9	67.9	48	47.5	0	1	315	0.00	30.006 
15:15	67.8	67.8	67.8	49	47.9	0	3	315	0.00	30.010 
15:20	67.4	67.4	67.4	49	47.6	1	2	338	0.00	30.010 
15:25	67.1	67.1	67.1	50	47.8	1	2	338	0.00	30.010 
15:30	67.1	67.1	67.1	50	47.8	1	3	315	0.00	30.022 
15:35	66.9	66.9	66.9	50	47.6	1	2	315	0.00	30.022 
15:40	66.8	66.8	66.8	51	48.1	0	2	315	0.00	30.022 
15:45	66.6	66.6	66.6	53	48.9	1	3	315	0.00	30.014 
15:50	66.4	66.4	66.4	54	49.2	0	3	315	0.00	30.014 
15:55	66.3	66.3	66.3	56	50.1	0	1	315	0.00	30.014 
16:00	66.1	66.1	66.1	56	49.9	0	1	315	0.00	30.014 
16:05	66.0	66.0	66.0	56	49.8	0	1	315	0.00	30.014 
16:10	65.6	65.6	65.6	57	49.9	0	2	315	0.00	30.014 
16:15	65.6	65.6	65.6	58	50.4	0	2	315	0.00	30.013 
16:20	65.5	65.5	65.5	59	50.8	0	2	315	0.00	30.013 
16:25	65.2	65.2	65.2	60	51.0	0	2	315	0.00	30.013 
16:30	65.0	65.0	65.0	59	50.3	0	3	315	0.00	30.014 
16:35	65.0	65.0	65.0	60	50.8	0	1	315	0.00	30.014 
16:40	65.0	65.0	65.0	60	50.8	1	3	315	0.00	30.014 
16:45	64.8	64.8	64.8	62	51.5	0	1	315	0.00	30.024 
16:50	64.7	64.7	64.7	62	51.4	0	1	315	0.00	30.024 
16:55	64.5	64.5	64.5	62	51.2	0	1	315	0.00	30.024 
17:00	64.3	64.3	64.3	63	51.4	0	0	---	0.00	30.028 
17:05	64.2	64.2	64.2	64	51.8	0	0	---	0.00	30.028 
17:10	64.0	64.0	64.0	65	52.0	0	1	315	0.00	30.028 
17:15	64.0	64.0	64.0	65	52.0	0	2	315	0.00	30.034 
17:20	63.9	63.9	63.9	64	51.5	1	3	270	0.00	30.034 
17:25	63.7	63.7	63.7	64	51.3	1	3	270	0.00	30.034 
17:30	63.4	63.4	63.4	65	51.4	2	4	270	0.00	30.054 
17:35	63.1	63.1	63.1	65	51.1	2	5	270	0.00	30.054 
17:40	62.7	62.7	62.7	67	51.6	1	3	270	0.00	30.054 
17:45	62.1	62.1	62.1	70	52.2	1	4	270	0.00	30.045 
17:50	61.5	61.5	61.5	74	53.1	1	2	292	0.00	30.045 
17:55	60.7	60.7	60.7	77	53.4	1	3	292	0.00	30.045 
18:00	60.4	60.4	60.4	79	53.9	1	4	292	0.00	30.061 
18:05	60.1	60.1	60.1	81	54.2	1	2	292	0.00	30.061 
18:10	59.6	59.6	59.6	81	53.8	1	3	292	0.00	30.061 
18:15	59.2	59.2	59.2	83	54.0	0	2	315	0.00	30.071 
18:20	58.9	58.9	58.9	84	54.1	0	1	315	0.01	30.071 
18:25	58.7	58.7	58.7	86	54.5	0	1	315	0.00	30.071 
18:30	58.6	58.6	58.6	87	54.7	0	1	315	0.00	30.065 
18:35	58.4	58.4	58.4	87	54.5	0	3	315	0.00	30.065 
18:40	58.3	58.3	58.3	88	54.8	0	2	292	0.00	30.065 
18:45	58.0	58.0	58.0	88	54.5	0	2	292	0.00	30.073 
18:50	58.0	58.0	58.0	88	54.5	0	1	292	0.01	30.073 
18:55	57.8	57.8	57.8	89	54.6	0	1	292	0.00	30.073 
19:00	58.0	58.0	58.0	89	54.8	0	1	292	0.00	30.079 
19:05	58.0	58.0	58.0	90	55.1	0	1	292	0.00	30.079 
19:10	58.0	58.0	58.0	91	55.4	0	1	292	0.01	30.079 
19:15	57.8	57.8	57.8	91	55.2	1	6	292	0.01	30.076 
19:20	57.3	57.3	57.3	91	54.7	1	5	292	0.00	30.076 
19:25	56.9	56.9	56.9	91	54.3	0	2	292	0.00	30.076 
19:30	56.5	56.5	56.5	91	53.9	1	3	292	0.01	30.066 
19:35	56.2	56.2	56.2	91	53.6	0	1	292	0.00	30.066 
19:40	56.0	56.0	56.0	91	53.4	0	1	292	0.01	30.066 
19:45	56.0	56.0	56.0	92	53.7	0	1	292	0.00	30.064 
19:50	56.0	56.0	56.0	92	53.7	0	1	292	0.01	30.064 
19:55	55.9	55.9	55.9	92	53.6	0	2	292	0.00	30.064 
20:00	55.9	55.9	55.9	92	53.6	0	2	292	0.01	30.067 
20:05	55.7	55.7	55.7	92	53.4	0	0	---	0.00	30.067 
20:10	55.7	55.7	55.7	93	53.7	0	2	292	0.00	30.067 
20:15	55.6	55.6	55.6	93	53.6	0	1	292	0.00	30.062 
20:20	55.4	55.4	55.4	93	53.4	0	1	292	0.01	30.062 
20:25	55.3	55.3	55.3	93	53.3	0	1	292	0.00	30.062 
20:30	55.1	55.1	55.1	93	53.1	0	1	292	0.00	30.067 
20:35	55.0	55.0	55.0	93	53.0	0	3	292	0.01	30.067 
20:40	54.8	54.8	54.8	93	52.8	0	3	292	0.00	30.067 
20:45	54.7	54.7	54.7	93	52.7	0	3	292	0.00	30.076 
20:50	54.7	54.7	54.7	93	52.7	0	2	292	0.01	30.076 
20:55	54.7	54.7	54.7	93	52.7	0	1	292	0.00	30.076 
21:00	54.7	54.7	54.7	93	52.7	0	2	292	0.00	30.076 
21:05	54.7	54.7	54.7	93	52.7	0	2	292	0.01	30.076 
21:10	54.7	54.7	54.7	93	52.7	0	1	292	0.00	30.076 
21:15	54.7	54.7	54.7	93	52.7	0	1	292	0.00	30.070 
21:20	54.5	54.5	54.5	94	52.8	0	1	292	0.00	30.070 
21:25	54.7	54.7	54.7	94	53.0	0	1	292	0.00	30.070 
21:30	54.7	54.7	54.7	94	53.0	0	1	292	0.00	30.073 
21:35	54.5	54.5	54.5	94	52.8	0	3	292	0.00	30.073 
21:40	54.5	54.5	54.5	94	52.8	0	2	292	0.01	30.073 
21:45	54.1	54.1	54.1	93	52.1	1	6	292	0.00	30.089 
21:50	52.8	52.8	52.8	92	50.5	1	5	315	0.00	30.089 
21:55	51.9	51.9	51.9	92	49.6	1	3	315	0.00	30.089 
22:00	51.4	51.4	51.4	91	48.9	1	4	315	0.00	30.097 
22:05	51.4	51.4	51.4	91	48.9	0	2	292	0.00	30.097 
22:10	51.3	51.3	51.3	91	48.8	0	5	292	0.00	30.097 
22:15	51.3	51.3	51.3	91	48.8	0	2	292	0.00	30.096 
22:20	51.3	51.3	51.3	91	48.8	0	2	292	0.00	30.096 
22:25	51.3	51.3	51.3	91	48.8	0	3	292	0.00	30.096 
22:30	51.3	51.3	51.3	91	48.8	0	2	292	0.00	30.098 
22:35	51.1	51.1	51.1	91	48.6	0	1	292	0.00	30.098 
22:40	51.1	51.1	51.1	90	48.3	0	3	292	0.00	30.098 
22:45	51.1	51.1	51.1	90	48.3	0	3	292	0.00	30.097 
22:50	51.1	51.1	51.1	90	48.3	1	3	292	0.00	30.097 
22:55	51.1	51.1	51.1	89	48.0	0	1	292	0.00	30.097 
23:00	51.0	51.0	51.0	89	47.9	0	3	292	0.00	30.098 
23:05	51.0	51.0	51.0	88	47.6	0	3	292	0.00	30.098 
23:10	51.0	51.0	51.0	88	47.6	0	3	292	0.00	30.098 
23:15	51.0	51.0	51.0	88	47.6	0	2	292	0.00	30.098 
23:20	50.8	50.8	50.8	87	47.1	0	2	292	0.00	30.098 
23:25	50.8	50.8	50.8	87	47.1	0	3	292	0.00	30.098 
23:30	50.7	50.7	50.7	87	47.0	0	2	315	0.00	30.100 
23:35	50.7	50.7	50.7	86	46.7	1	4	292	0.00	30.100 
23:40	50.5	50.5	50.5	86	46.5	0	2	292	0.00	30.100 
23:45	50.5	50.5	50.5	86	46.5	1	4	292	0.00	30.101 
23:50	50.4	50.4	50.4	85	46.1	0	2	315	0.00	30.101 
23:55	50.4	50.4	50.4	85	46.1	0	2	315	0.00	30.101 

CoCoRaHS
IN-AL-39
A2 Web Hosting
Creative Commons License
GoDaddy
search engine by freefind advanced

loaded 2018-11-16 01:25:58 • last modified 2010-11-18 10:43:29
Privacy PolicyDisclaimer
• wx.awcolley.com is powered by PmWiki v.2002016 •
• all content (unless otherwise noted) © 2018 A W Colley